Time;durP1;ratioP1;P1;durP2;ratioP2;P2;SDS_P1;SDS_P2;PMS_P1;PMS_P2;Temp;Humidity;BMP_temperature;BMP_pressure;BME280_temperature;BME280_humidity;BME280_pressure;Samples;Min_cycle;Max_cycle;Signal;HPM_P1;HPM_P2
2022/10/28 00:02:06;;;;;;;18.60;7.72;;;;;;;13.88;98.90;101720.50;5033216;28;20052;-73
2022/10/28 00:04:31;;;;;;;18.25;7.63;;;;;;;13.85;98.62;101722.38;5032981;28;20037;-72
2022/10/28 00:06:57;;;;;;;15.43;7.65;;;;;;;13.85;100.00;101723.25;5030811;28;20203;-73
2022/10/28 00:09:22;;;;;;;17.20;8.02;;;;;;;13.82;100.00;101717.09;5031703;28;20033;-72
2022/10/28 00:11:48;;;;;;;18.05;7.10;;;;;;;13.79;99.31;101717.16;5031637;28;20033;-73
2022/10/28 00:14:13;;;;;;;15.75;7.18;;;;;;;13.76;99.48;101715.44;5033126;28;20059;-72
2022/10/28 00:16:39;;;;;;;17.98;8.45;;;;;;;13.76;99.80;101718.09;5032911;28;20025;-73
2022/10/28 00:19:07;;;;;;;15.80;8.07;;;;;;;13.73;99.65;101715.53;5032954;28;20045;-73
2022/10/28 00:21:34;;;;;;;17.73;7.65;;;;;;;13.71;99.17;101717.31;5032612;28;20445;-73
2022/10/28 00:24:07;;;;;;;18.42;7.82;;;;;;;13.70;100.00;101712.94;5030250;28;20028;-72
2022/10/28 00:26:37;;;;;;;20.73;7.30;;;;;;;13.65;100.00;101714.78;5031309;28;20334;-73
2022/10/28 00:29:06;;;;;;;13.85;7.47;;;;;;;13.60;99.08;101712.25;5030612;28;20034;-73
2022/10/28 00:31:32;;;;;;;21.92;7.90;;;;;;;13.59;99.37;101714.91;5032542;28;20013;-73
2022/10/28 00:34:00;;;;;;;16.20;7.65;;;;;;;13.59;100.00;101712.25;5031212;28;20117;-73
2022/10/28 00:36:31;;;;;;;19.67;8.00;;;;;;;13.59;100.00;101721.13;5032516;28;20125;-73
2022/10/28 00:38:56;;;;;;;;;;;;;;;13.67;98.72;101719.16;5031263;28;20029;-73
2022/10/28 00:41:28;;;;;;;15.52;7.35;;;;;;;13.59;99.64;101714.91;5032805;28;20321;-73
2022/10/28 00:43:54;;;;;;;;;;;;;;;13.63;98.23;101706.84;5033042;28;20140;-73
2022/10/28 00:46:38;;;;;;;15.73;7.65;;;;;;;13.55;99.51;101704.34;5043466;28;20375;-73
2022/10/28 00:49:13;;;;;;;14.07;7.40;;;;;;;13.52;99.78;101706.16;5030267;28;20068;-73
2022/10/28 00:51:40;;;;;;;14.95;7.28;;;;;;;13.51;100.00;101702.66;5032428;28;20425;-73
2022/10/28 00:54:06;;;;;;;16.45;8.00;;;;;;;13.46;98.89;101695.66;5032425;28;20489;-73
2022/10/28 00:56:39;;;;;;;21.38;8.18;;;;;;;13.45;99.82;101691.25;5032219;28;20056;-73
2022/10/28 00:59:10;;;;;;;16.13;6.80;;;;;;;13.43;99.68;101687.75;5032497;28;20030;-73
2022/10/28 01:01:36;;;;;;;21.35;7.93;;;;;;;13.41;100.00;101679.78;5032179;28;20041;-73
2022/10/28 01:04:02;;;;;;;19.98;8.00;;;;;;;13.41;100.00;101676.25;5032636;28;20032;-73
2022/10/28 01:06:28;;;;;;;19.23;7.88;;;;;;;13.38;99.52;101685.19;5032184;28;20039;-73
2022/10/28 01:08:53;;;;;;;15.23;8.40;;;;;;;13.36;100.00;101671.03;5032034;28;20096;-73
2022/10/28 01:11:37;;;;;;;21.73;8.38;;;;;;;13.38;100.00;101678.97;5030619;28;20045;-73
2022/10/28 01:14:15;;;;;;;18.05;7.88;;;;;;;13.34;100.00;101668.38;5031807;28;20044;-73
2022/10/28 01:16:58;;;;;;;16.90;7.00;;;;;;;13.34;99.70;101665.72;5031744;28;20060;-73
2022/10/28 01:19:48;;;;;;;18.02;7.55;;;;;;;13.35;100.00;101661.28;5030889;28;20051;-73
2022/10/28 01:22:31;;;;;;;19.95;7.85;;;;;;;13.33;100.00;101666.66;5030459;28;20041;-73
2022/10/28 01:25:34;;;;;;;15.43;8.02;;;;;;;13.36;100.00;101671.03;5029016;28;20087;-73
2022/10/28 01:28:37;;;;;;;12.80;7.63;;;;;;;13.36;99.88;101672.81;5029802;28;20041;-73
2022/10/28 01:31:26;;;;;;;23.38;8.25;;;;;;;13.32;100.00;101666.66;5028986;28;20068;-73
2022/10/28 01:34:13;;;;;;;12.98;7.50;;;;;;;13.24;99.72;101661.47;5030056;28;20034;-73
2022/10/28 01:36:58;;;;;;;13.20;7.65;;;;;;;13.25;100.00;101662.34;5030086;28;20080;-73
2022/10/28 01:39:48;;;;;;;18.52;7.28;;;;;;;13.22;100.00;101662.41;5030003;28;20040;-73
2022/10/28 01:42:29;;;;;;;15.27;7.63;;;;;;;13.16;100.00;101660.75;5030684;28;20095;-73
2022/10/28 01:45:23;;;;;;;15.23;7.70;;;;;;;13.15;100.00;101658.13;5030786;28;20048;-73
2022/10/28 01:48:01;;;;;;;21.48;8.63;;;;;;;13.11;100.00;101655.53;5034008;28;20488;-73
2022/10/28 01:50:45;;;;;;;23.65;8.40;;;;;;;13.10;100.00;101658.19;5031339;28;20045;-73
2022/10/28 01:53:15;;;;;;;13.43;7.07;;;;;;;13.06;100.00;101659.19;5031407;28;20469;-73
2022/10/28 01:55:47;;;;;;;15.43;7.07;;;;;;;13.05;100.00;101660.94;5031050;28;20480;-73
2022/10/28 01:58:17;;;;;;;15.35;7.68;;;;;;;13.04;100.00;101661.00;5030066;28;20033;-73
2022/10/28 02:00:45;;;;;;;14.73;7.27;;;;;;;13.05;100.00;101658.28;5032436;28;20040;-73
2022/10/28 02:03:10;;;;;;;19.45;8.23;;;;;;;13.01;100.00;101658.41;5031091;28;20664;-73
2022/10/28 02:05:36;;;;;;;17.10;7.38;;;;;;;13.00;100.00;101653.97;5030900;28;20033;-73
2022/10/28 02:08:12;;;;;;;16.42;7.93;;;;;;;12.99;100.00;101650.44;5031079;28;20017;-73
2022/10/28 02:10:45;;;;;;;16.30;7.95;;;;;;;12.96;100.00;101646.94;5045873;28;20034;-73
2022/10/28 02:13:14;;;;;;;15.43;7.10;;;;;;;12.93;100.00;101654.97;5030903;28;20060;-73
2022/10/28 02:15:54;;;;;;;12.82;6.97;;;;;;;12.90;100.00;101648.81;5045958;28;20473;-72
2022/10/28 02:18:24;;;;;;;14.98;7.05;;;;;;;12.88;100.00;101652.41;5046075;28;20033;-72
2022/10/28 02:20:57;;;;;;;16.93;7.33;;;;;;;12.86;100.00;101646.28;5030523;28;20056;-72
2022/10/28 02:23:43;;;;;;;15.30;6.70;;;;;;;12.86;100.00;101651.59;5029301;28;20763;-72
2022/10/28 02:26:26;;;;;;;15.65;7.80;;;;;;;12.82;100.00;101657.84;5009652;28;20034;-72
2022/10/28 02:29:10;;;;;;;19.88;7.53;;;;;;;12.83;100.00;101651.63;5030756;28;20030;-71
2022/10/28 02:31:58;;;;;;;22.98;7.75;;;;;;;12.78;100.00;101649.03;5033947;28;20132;-72
2022/10/28 02:34:35;;;;;;;17.67;7.35;;;;;;;12.75;100.00;101646.44;5033172;28;20044;-72
2022/10/28 02:37:08;;;;;;;19.05;7.75;;;;;;;12.73;100.00;101647.38;5034166;28;20064;-72
2022/10/28 02:39:39;;;;;;;17.95;6.80;;;;;;;12.70;100.00;101648.31;5032274;28;20104;-72
2022/10/28 02:42:04;;;;;;;;;;;;;;;12.78;99.87;101640.19;5032833;28;20362;-72
2022/10/28 02:44:39;;;;;;;22.55;7.88;;;;;;;12.68;100.00;101640.38;5033952;28;19972;-72
2022/10/28 02:47:12;;;;;;;14.73;7.07;;;;;;;12.65;100.00;101640.41;5033340;28;20041;-72
2022/10/28 02:49:41;;;;;;;13.85;7.13;;;;;;;12.63;100.00;101649.31;5034220;28;20390;-72
2022/10/28 02:52:08;;;;;;;19.27;7.72;;;;;;;12.56;100.00;101645.91;5034466;28;20041;-72
2022/10/28 02:54:57;;;;;;;17.55;8.10;;;;;;;12.55;100.00;101641.47;5034255;28;20469;-72
2022/10/28 02:57:29;;;;;;;19.35;7.63;;;;;;;12.48;99.88;101645.16;5031756;28;20512;-72
2022/10/28 03:00:01;;;;;;;16.08;8.10;;;;;;;12.47;100.00;101641.63;5034957;28;20025;-72
2022/10/28 03:02:27;;;;;;;14.20;7.55;;;;;;;12.42;100.00;101637.28;5032820;28;20124;-72
2022/10/28 03:04:53;;;;;;;19.45;7.40;;;;;;;12.41;100.00;101633.78;5034480;28;20033;-72
2022/10/28 03:07:19;;;;;;;16.85;7.18;;;;;;;12.40;100.00;101636.44;5033880;28;20029;-72
2022/10/28 03:09:44;;;;;;;20.85;7.50;;;;;;;12.37;100.00;101631.19;5034559;28;20023;-72
2022/10/28 03:12:10;;;;;;;14.80;6.63;;;;;;;12.35;100.00;101633.84;5034219;28;20049;-72
2022/10/28 03:14:36;;;;;;;17.35;7.40;;;;;;;12.32;100.00;101628.59;5034624;28;20028;-72
2022/10/28 03:17:02;;;;;;;17.63;7.63;;;;;;;12.32;100.00;101625.94;5049433;28;20046;-72
2022/10/28 03:19:27;;;;;;;15.25;7.38;;;;;;;12.32;100.00;101633.03;5034386;28;20021;-72
2022/10/28 03:21:53;;;;;;;17.98;7.35;;;;;;;12.29;100.00;101630.41;5032759;28;20558;-72
2022/10/28 03:24:18;;;;;;;15.63;6.90;;;;;;;12.26;100.00;101629.59;5034299;28;20334;-72
2022/10/28 03:26:44;;;;;;;16.67;6.72;;;;;;;12.29;100.00;101627.75;5034337;28;20021;-72
2022/10/28 03:29:09;;;;;;;13.93;6.57;;;;;;;12.27;100.00;101625.16;5034106;28;20034;-72
2022/10/28 03:31:34;;;;;;;12.10;6.47;;;;;;;12.26;100.00;101628.69;5034318;28;20456;-72
2022/10/28 03:34:00;;;;;;;13.40;6.68;;;;;;;12.23;100.00;101621.66;5020224;28;20088;-72
2022/10/28 03:36:25;;;;;;;23.85;7.45;;;;;;;12.21;100.00;101631.41;5032744;28;20129;-72
2022/10/28 03:38:51;;;;;;;16.48;6.32;;;;;;;12.21;100.00;101626.09;5034149;28;20049;-72
2022/10/28 03:41:16;;;;;;;17.45;7.82;;;;;;;12.20;100.00;101628.78;5037230;28;20040;-72
2022/10/28 03:43:43;;;;;;;16.80;7.70;;;;;;;12.15;100.00;101620.03;5053267;28;20041;-72
2022/10/28 03:46:08;;;;;;;11.15;7.07;;;;;;;12.14;100.00;101613.84;5050024;28;20029;-72
2022/10/28 03:48:34;;;;;;;17.20;7.32;;;;;;;12.17;100.00;101619.09;5057577;28;20044;-72
2022/10/28 03:50:59;;;;;;;13.55;6.20;;;;;;;12.14;100.00;101616.50;5032342;28;20055;-72
2022/10/28 03:53:25;;;;;;;14.25;6.97;;;;;;;12.15;100.00;101620.91;5033641;28;20069;-72
2022/10/28 03:55:54;;;;;;;19.40;6.80;;;;;;;12.14;100.00;101619.16;5033407;28;20034;-72
2022/10/28 03:58:20;;;;;;;14.43;6.57;;;;;;;12.11;100.00;101621.84;5033724;28;20079;-72
2022/10/28 04:00:50;;;;;;;13.88;6.32;;;;;;;12.12;100.00;101612.13;5054812;28;20074;-72
2022/10/28 04:03:16;;;;;;;16.20;6.30;;;;;;;12.12;100.00;101613.00;5033575;28;20350;-72
2022/10/28 04:05:43;;;;;;;15.18;7.47;;;;;;;12.12;100.00;101614.78;5033349;28;20588;-72
2022/10/28 04:08:08;;;;;;;17.30;6.72;;;;;;;12.12;100.00;101622.75;5033364;28;20032;-72
2022/10/28 04:10:34;;;;;;;16.27;6.57;;;;;;;12.11;100.00;101616.53;5033283;28;20038;-72
2022/10/28 04:13:00;;;;;;;17.05;7.15;;;;;;;12.09;100.00;101623.66;5031975;28;20386;-72
2022/10/28 04:15:26;;;;;;;18.65;7.13;;;;;;;12.08;100.00;101629.84;5033084;28;20037;-72
2022/10/28 04:17:51;;;;;;;16.23;6.53;;;;;;;12.06;100.00;101607.75;5032970;28;20534;-72
2022/10/28 04:20:17;;;;;;;21.92;6.80;;;;;;;12.05;100.00;101619.28;5048210;28;20037;-72
2022/10/28 04:22:42;;;;;;;19.30;6.80;;;;;;;12.03;100.00;101623.75;5032845;28;20448;-72
2022/10/28 04:25:09;;;;;;;17.55;6.60;;;;;;;12.04;100.00;101629.03;5048189;28;20484;-72
2022/10/28 04:27:34;;;;;;;17.65;6.70;;;;;;;12.02;100.00;101624.66;5048316;28;20034;-72
2022/10/28 04:30:00;;;;;;;20.23;6.43;;;;;;;12.00;100.00;101615.84;5032817;28;20032;-72
2022/10/28 04:32:26;;;;;;;14.27;5.85;;;;;;;11.97;100.00;101616.75;5028983;28;20037;-72
2022/10/28 04:34:51;;;;;;;14.82;7.00;;;;;;;11.94;100.00;101623.88;5023082;28;20022;-72
2022/10/28 04:37:17;;;;;;;17.40;7.10;;;;;;;11.94;100.00;101630.09;5032745;28;20501;-72
2022/10/28 04:39:42;;;;;;;16.42;6.30;;;;;;;11.93;100.00;101630.09;5031770;28;20037;-72
2022/10/28 04:42:08;;;;;;;15.38;6.68;;;;;;;11.88;100.00;101619.53;5043217;28;20029;-72
2022/10/28 04:44:33;;;;;;;13.68;6.60;;;;;;;11.88;100.00;101619.53;5031776;28;20018;-72
2022/10/28 04:46:59;;;;;;;19.83;6.28;;;;;;;11.88;100.00;101626.63;5038335;28;20641;-72
2022/10/28 04:49:24;;;;;;;17.10;6.38;;;;;;;11.86;100.00;101629.28;5050059;28;20025;-72
2022/10/28 04:51:50;;;;;;;10.95;5.25;;;;;;;11.83;100.00;101626.66;5032870;28;20091;-73
2022/10/28 04:54:15;;;;;;;17.23;6.60;;;;;;;11.83;100.00;101624.00;5032394;28;20485;-72
2022/10/28 04:56:41;;;;;;;13.38;6.05;;;;;;;11.79;100.00;101612.59;5048095;28;20137;-72
2022/10/28 04:59:06;;;;;;;14.55;6.07;;;;;;;11.80;100.00;101616.09;5054254;28;20044;-72
2022/10/28 05:01:32;;;;;;;16.63;5.93;;;;;;;11.79;100.00;101620.53;5032815;28;20040;-72
2022/10/28 05:03:57;;;;;;;16.75;6.20;;;;;;;11.77;100.00;101618.78;5032988;28;20042;-72
2022/10/28 05:06:23;;;;;;;20.52;6.70;;;;;;;11.76;100.00;101622.34;5032347;28;20045;-72
2022/10/28 05:08:48;;;;;;;16.52;5.88;;;;;;;11.75;100.00;101612.66;5011446;28;20018;-72
2022/10/28 05:11:14;;;;;;;15.45;6.30;;;;;;;11.74;100.00;101621.47;5026416;28;20041;-72
2022/10/28 05:13:39;;;;;;;12.85;5.85;;;;;;;11.70;100.00;101620.66;5032234;28;20034;-72
2022/10/28 05:16:05;;;;;;;12.20;5.97;;;;;;;11.67;100.00;101618.06;5032224;28;20053;-72
2022/10/28 05:18:31;;;;;;;18.00;5.88;;;;;;;11.66;100.00;101613.63;5032125;28;20104;-72
2022/10/28 05:20:56;;;;;;;15.32;6.03;;;;;;;11.63;100.00;101622.50;5027317;28;20099;-72
2022/10/28 05:23:22;;;;;;;18.30;6.60;;;;;;;11.60;100.00;101614.59;5027817;28;20028;-72
2022/10/28 05:25:48;;;;;;;15.05;5.80;;;;;;;11.57;100.00;101617.31;5027477;28;20034;-72
2022/10/28 05:28:13;;;;;;;15.70;5.78;;;;;;;11.56;100.00;101620.84;5026556;28;20029;-72
2022/10/28 05:30:39;;;;;;;14.35;5.68;;;;;;;11.53;100.00;101604.97;5031510;28;20064;-72
2022/10/28 05:33:04;;;;;;;15.82;6.35;;;;;;;11.54;100.00;101605.84;5013477;28;20035;-72
2022/10/28 05:35:30;;;;;;;15.77;5.90;;;;;;;11.55;100.00;101608.50;5030044;28;20166;-72
2022/10/28 05:37:56;;;;;;;17.23;6.00;;;;;;;11.55;100.00;101607.63;5029817;28;20077;-72
2022/10/28 05:40:21;;;;;;;14.18;6.25;;;;;;;11.54;100.00;101609.38;5030928;28;20045;-72
2022/10/28 05:42:47;;;;;;;12.00;5.32;;;;;;;11.54;100.00;101605.84;5032891;28;20021;-72
2022/10/28 05:45:13;;;;;;;18.33;5.97;;;;;;;11.52;100.00;101613.84;5030499;28;20034;-72
2022/10/28 05:47:45;;;;;;;16.52;5.93;;;;;;;11.51;100.00;101611.19;5031857;28;20100;-72
2022/10/28 05:50:12;;;;;;;13.52;6.03;;;;;;;11.49;100.00;101615.63;5031103;28;20473;-72
2022/10/28 05:52:37;;;;;;;16.30;5.97;;;;;;;11.44;100.00;101615.69;5029824;28;20024;-72
2022/10/28 05:55:04;;;;;;;16.67;5.63;;;;;;;11.41;100.00;101613.09;5028499;28;20042;-72
2022/10/28 05:57:32;;;;;;;13.05;5.65;;;;;;;11.38;100.00;101608.72;5029973;28;20033;-72
2022/10/28 05:59:58;;;;;;;8.00;4.63;;;;;;;11.37;100.00;101606.06;5030459;28;20037;-72
2022/10/28 06:02:23;;;;;;;15.93;5.50;;;;;;;11.35;100.00;101608.75;5046208;28;20488;-72
2022/10/28 06:04:49;;;;;;;11.65;5.75;;;;;;;11.33;100.00;101605.25;5029045;28;20079;-72
2022/10/28 06:07:14;;;;;;;17.02;5.80;;;;;;;11.34;100.00;101606.09;5030877;28;20484;-72
2022/10/28 06:09:39;;;;;;;14.30;6.20;;;;;;;11.32;100.00;101619.38;5029800;28;20633;-72
2022/10/28 06:12:07;;;;;;;13.23;5.57;;;;;;;11.33;100.00;101615.84;5029633;28;20091;-72
2022/10/28 06:14:32;;;;;;;21.90;6.10;;;;;;;11.32;100.00;101613.19;5030101;28;20056;-72
2022/10/28 06:16:58;;;;;;;17.75;6.82;;;;;;;11.31;100.00;101612.34;5029657;28;20500;-72
2022/10/28 06:19:23;;;;;;;19.77;5.60;;;;;;;11.31;100.00;101614.97;5028855;28;20501;-72
2022/10/28 06:21:49;;;;;;;14.55;5.20;;;;;;;11.31;100.00;101620.28;5031303;28;20103;-72
2022/10/28 06:24:14;;;;;;;13.90;5.82;;;;;;;11.33;100.00;101622.94;5030827;28;20037;-72
2022/10/28 06:26:40;;;;;;;16.55;6.15;;;;;;;11.33;100.00;101621.16;5031527;28;20045;-72
2022/10/28 06:29:05;;;;;;;13.02;6.47;;;;;;;11.34;100.00;101625.53;5030988;28;20469;-72
2022/10/28 06:31:32;;;;;;;17.80;5.35;;;;;;;11.35;100.00;101624.66;5031357;28;20029;-72
2022/10/28 06:33:57;;;;;;;17.50;6.15;;;;;;;11.35;100.00;101627.31;5029959;28;20029;-72
2022/10/28 06:36:23;;;;;;;12.88;5.55;;;;;;;11.36;100.00;101621.09;5031168;28;20406;-72
2022/10/28 06:38:52;;;;;;;15.43;5.78;;;;;;;11.38;100.00;101627.28;5030094;28;20120;-72
2022/10/28 06:41:17;;;;;;;15.80;6.45;;;;;;;11.40;100.00;101621.97;5035292;28;20055;-72
2022/10/28 06:43:42;;;;;;;18.02;5.38;;;;;;;11.41;100.00;101629.00;5036232;28;20450;-72
2022/10/28 06:46:08;;;;;;;15.57;5.88;;;;;;;11.44;100.00;101625.44;5031311;28;20382;-72
2022/10/28 06:48:33;;;;;;;20.70;6.38;;;;;;;11.47;100.00;101628.91;5036376;28;20033;-72
2022/10/28 06:50:59;;;;;;;11.38;5.93;;;;;;;11.46;100.00;101611.25;5029905;28;20044;-72
2022/10/28 06:53:25;;;;;;;13.82;7.05;;;;;;;11.51;100.00;101619.16;5045650;28;20037;-72
2022/10/28 06:55:57;;;;;;;16.00;5.95;;;;;;;11.53;100.00;101614.72;5025044;28;20036;-72
2022/10/28 06:58:24;;;;;;;19.13;5.88;;;;;;;11.54;100.00;101612.03;5012844;28;20075;-72
2022/10/28 07:00:50;;;;;;;15.40;6.07;;;;;;;11.56;100.00;101615.53;5030474;28;20025;-72
2022/10/28 07:03:17;;;;;;;14.38;6.00;;;;;;;11.60;100.00;101617.25;5029646;28;20119;-72
2022/10/28 07:05:43;;;;;;;19.45;6.68;;;;;;;11.62;100.00;101620.78;5030360;28;20033;-72
2022/10/28 07:08:09;;;;;;;14.38;6.53;;;;;;;11.67;100.00;101623.38;5030320;28;20433;-72
2022/10/28 07:10:35;;;;;;;15.23;5.43;;;;;;;11.68;100.00;101624.25;5030921;28;20060;-72
2022/10/28 07:13:00;;;;;;;13.90;5.50;;;;;;;11.73;100.00;101631.22;5030797;28;20072;-72
2022/10/28 07:15:25;;;;;;;17.08;5.65;;;;;;;11.75;100.00;101626.78;5029499;28;20057;-72
2022/10/28 07:17:56;;;;;;;16.35;5.93;;;;;;;11.78;100.00;101624.06;5032287;28;20085;-72
2022/10/28 07:20:22;;;;;;;19.00;6.40;;;;;;;11.85;100.00;101619.56;5014832;28;20138;-72
2022/10/28 07:22:57;;;;;;;18.83;6.53;;;;;;;11.92;100.00;101629.22;5032845;28;20032;-72
2022/10/28 07:25:23;;;;;;;22.67;6.72;;;;;;;11.96;100.00;101622.94;5034242;28;20065;-72
2022/10/28 07:27:48;;;;;;;15.05;6.28;;;;;;;12.02;100.00;101625.53;5033697;28;20086;-72
2022/10/28 07:30:14;;;;;;;17.98;6.63;;;;;;;12.13;100.00;101632.44;5049495;28;20108;-72
2022/10/28 07:32:39;;;;;;;23.08;6.03;;;;;;;12.19;100.00;101638.56;5049075;28;20521;-72
2022/10/28 07:35:05;;;;;;;16.23;6.45;;;;;;;12.26;100.00;101632.25;5033554;28;20517;-72
2022/10/28 07:37:30;;;;;;;19.42;6.38;;;;;;;12.35;100.00;101640.94;5033974;28;20576;-72
2022/10/28 07:39:56;;;;;;;17.50;7.47;;;;;;;12.48;100.00;101639.84;5034108;28;20116;-72
2022/10/28 07:42:21;;;;;;;18.05;7.65;;;;;;;12.56;100.00;101632.63;5046548;28;20049;-72
2022/10/28 07:44:47;;;;;;;13.20;6.65;;;;;;;12.73;100.00;101628.78;5034327;28;20144;-72
2022/10/28 07:47:12;;;;;;;21.92;7.68;;;;;;;12.87;100.00;101635.59;5043613;28;20607;-72
2022/10/28 07:49:38;;;;;;;17.58;7.78;;;;;;;12.99;100.00;101628.31;5032969;28;20029;-72
2022/10/28 07:52:03;;;;;;;26.73;8.00;;;;;;;13.16;100.00;101636.81;5032388;28;20081;-72
2022/10/28 07:54:30;;;;;;;17.40;8.13;;;;;;;13.30;100.00;101631.22;5032501;28;20037;-72
2022/10/28 07:56:56;;;;;;;23.35;7.50;;;;;;;13.44;100.00;101623.84;5033851;28;20041;-72
2022/10/28 07:59:23;;;;;;;17.88;6.93;;;;;;;13.61;100.00;101626.16;5040435;28;20472;-72
2022/10/28 08:01:49;;;;;;;20.02;6.85;;;;;;;13.77;100.00;101621.34;5033556;28;20037;-72
2022/10/28 08:04:14;;;;;;;17.20;6.80;;;;;;;13.90;100.00;101619.31;5049563;28;20688;-72
2022/10/28 08:06:40;;;;;;;15.30;6.43;;;;;;;14.04;100.00;101606.53;5033880;28;20068;-72
2022/10/28 08:09:05;;;;;;;18.17;5.88;;;;;;;14.15;100.00;101617.81;5048836;28;20083;-72
2022/10/28 08:11:31;;;;;;;19.05;6.78;;;;;;;14.29;100.00;101622.81;5016095;28;20041;-73
2022/10/28 08:13:56;;;;;;;30.77;7.65;;;;;;;14.47;100.00;101620.59;5033367;28;20038;-73
2022/10/28 08:16:22;;;;;;;17.13;5.95;;;;;;;14.60;100.00;101620.25;5033488;28;20485;-72
2022/10/28 08:18:47;;;;;;;19.25;6.25;;;;;;;14.76;100.00;101630.50;5049019;28;20442;-72
2022/10/28 08:21:13;;;;;;;17.60;6.22;;;;;;;14.85;100.00;101632.94;5033895;28;20025;-72
2022/10/28 08:23:40;;;;;;;18.08;6.05;;;;;;;14.95;100.00;101637.09;5033685;28;20473;-73
2022/10/28 08:26:06;;;;;;;20.42;6.97;;;;;;;15.05;100.00;101643.91;5048797;28;20021;-72
2022/10/28 08:28:31;;;;;;;25.20;6.00;;;;;;;15.12;100.00;101644.63;5048158;28;20082;-73
2022/10/28 08:31:02;;;;;;;27.08;6.50;;;;;;;15.21;100.00;101646.19;5033465;28;20435;-73
2022/10/28 08:33:29;;;;;;;19.60;5.83;;;;;;;15.27;100.00;101638.84;5021112;28;20068;-73
2022/10/28 08:35:55;;;;;;;24.83;5.75;;;;;;;15.37;99.51;101642.13;5031842;28;20021;-73
2022/10/28 08:38:20;;;;;;;15.52;6.55;;;;;;;15.45;99.20;101637.47;5032427;28;20503;-73
2022/10/28 08:41:07;;;;;;;26.55;6.13;;;;;;;15.53;99.32;101639.91;5050618;28;20099;-73
2022/10/28 08:43:41;;;;;;;23.33;6.30;;;;;;;15.59;99.50;101639.72;5040557;28;20400;-73
2022/10/28 08:46:15;;;;;;;19.48;6.30;;;;;;;15.68;99.00;101639.44;5048621;28;20477;-73
2022/10/28 08:48:41;;;;;;;15.35;5.40;;;;;;;15.78;98.60;101632.06;5056159;28;20118;-73
2022/10/28 08:51:31;;;;;;;18.30;6.28;;;;;;;15.92;98.71;101623.59;5014954;28;20021;-73
2022/10/28 08:54:03;;;;;;;24.27;5.87;;;;;;;16.10;96.76;101627.50;5047894;28;20120;-73
2022/10/28 08:56:57;;;;;;;20.13;5.63;;;;;;;16.31;96.85;101637.47;5032578;28;20040;-73
2022/10/28 08:59:43;;;;;;;12.05;5.45;;;;;;;16.50;96.43;101634.19;5038582;28;20178;-73
2022/10/28 09:02:44;;;;;;;16.20;4.97;;;;;;;16.63;95.47;101638.19;5031036;28;20045;-73
2022/10/28 09:05:30;;;;;;;;;;;;;;;16.71;96.03;101636.09;5033305;28;20064;-73
2022/10/28 09:07:57;;;;;;;17.90;6.00;;;;;;;16.81;93.92;101641.19;5031967;28;21262;-73
2022/10/28 09:10:41;;;;;;;19.25;5.30;;;;;;;16.88;93.27;101640.91;5029707;28;20104;-73
2022/10/28 09:13:18;;;;;;;18.52;5.97;;;;;;;16.93;92.14;101644.28;5031849;28;20033;-73
2022/10/28 09:16:09;;;;;;;14.20;5.15;;;;;;;16.99;91.90;101645.88;5031663;28;20069;-74
2022/10/28 09:18:51;;;;;;;20.08;5.65;;;;;;;17.07;91.60;101645.63;5031109;28;20124;-73
2022/10/28 09:21:42;;;;;;;25.15;5.30;;;;;;;17.16;90.35;101642.56;5029445;28;20147;-73
2022/10/28 09:24:19;;;;;;;23.70;4.82;;;;;;;17.31;89.47;101641.13;5022369;28;20056;-73
2022/10/28 09:26:53;;;;;;;20.25;5.20;;;;;;;17.52;90.14;101652.88;5032199;28;20040;-73
2022/10/28 09:29:29;;;;;;;19.05;5.53;;;;;;;17.68;88.94;101655.81;5047301;28;20037;-73
2022/10/28 09:32:07;;;;;;;18.13;6.28;;;;;;;17.81;89.08;101641.06;5030915;28;20047;-74
2022/10/28 09:34:45;;;;;;;11.32;4.40;;;;;;;17.86;87.49;101643.56;5030103;28;20106;-74
2022/10/28 09:37:23;;;;;;;17.80;5.15;;;;;;;17.89;86.41;101655.03;5046621;28;20068;-74
2022/10/28 09:40:15;;;;;;;14.85;4.93;;;;;;;17.90;88.11;101646.03;5030729;28;20060;-74
2022/10/28 09:42:48;;;;;;;18.02;5.07;;;;;;;17.92;86.53;101657.56;5023275;28;20462;-74
2022/10/28 09:45:25;;;;;;;18.33;6.00;;;;;;;17.96;86.54;101655.66;5031877;28;20128;-73
2022/10/28 09:48:25;;;;;;;13.90;4.97;;;;;;;17.99;87.54;101651.03;5028737;28;20527;-74
2022/10/28 09:50:53;;;;;;;19.08;5.35;;;;;;;18.11;86.01;101651.50;5020176;28;20167;-74
2022/10/28 09:53:40;;;;;;;17.40;6.07;;;;;;;18.24;86.66;101653.59;5031640;28;20021;-73
2022/10/28 09:56:05;;;;;;;23.08;5.38;;;;;;;18.39;85.68;101654.78;5030321;28;20049;-73
2022/10/28 09:58:35;;;;;;;20.90;4.10;;;;;;;18.51;83.66;101649.84;5033877;28;20092;-74
2022/10/28 10:01:03;;;;;;;17.88;5.53;;;;;;;18.61;82.67;101645.81;5036479;28;20068;-74
2022/10/28 10:03:29;;;;;;;13.55;4.43;;;;;;;18.72;81.90;101651.63;5031318;28;20036;-73
2022/10/28 10:06:01;;;;;;;17.23;4.80;;;;;;;18.85;81.51;101654.69;5031545;28;20477;-74
2022/10/28 10:08:26;;;;;;;17.17;4.45;;;;;;;18.99;80.16;101651.38;5027112;28;20041;-74
2022/10/28 10:10:58;;;;;;;15.68;4.70;;;;;;;19.09;79.78;101650.91;5031684;28;20108;-74
2022/10/28 10:13:29;;;;;;;18.42;4.88;;;;;;;19.20;79.72;101653.09;5046387;28;20083;-74
2022/10/28 10:15:59;;;;;;;18.92;4.82;;;;;;;19.23;78.31;101650.28;5030149;28;20041;-73
2022/10/28 10:18:28;;;;;;;20.80;5.05;;;;;;;19.33;77.95;101650.72;5031384;28;20079;-73
2022/10/28 10:20:59;;;;;;;11.32;4.35;;;;;;;19.43;78.19;101652.03;5028370;28;20025;-74
2022/10/28 10:23:33;;;;;;;22.63;5.50;;;;;;;19.55;77.44;101637.19;5031118;28;20037;-73
2022/10/28 10:26:06;;;;;;;14.45;4.70;;;;;;;19.64;76.15;101631.38;5030005;28;20449;-73
2022/10/28 10:28:41;;;;;;;21.67;4.68;;;;;;;19.73;76.78;101635.47;5030887;28;20041;-74
2022/10/28 10:31:15;;;;;;;14.50;4.90;;;;;;;19.82;75.70;101639.53;5029911;28;20033;-74
2022/10/28 10:33:41;;;;;;;11.90;4.32;;;;;;;19.89;74.33;101632.94;5017842;28;20454;-73
2022/10/28 10:36:09;;;;;;;19.63;4.88;;;;;;;19.92;74.58;101636.31;5030183;28;20048;-75
2022/10/28 10:38:36;;;;;;;18.27;4.53;;;;;;;20.01;74.20;101632.34;5030065;28;20045;-73
2022/10/28 10:41:02;;;;;;;16.40;4.75;;;;;;;20.12;74.10;101629.13;5051787;28;20033;-73
2022/10/28 10:43:31;;;;;;;14.82;4.47;;;;;;;20.15;71.83;101634.31;5053800;28;20033;-73
2022/10/28 10:46:05;;;;;;;13.93;4.43;;;;;;;20.24;72.22;101623.13;5046331;28;20018;-73
2022/10/28 10:48:37;;;;;;;22.45;4.88;;;;;;;20.34;71.85;101620.84;5021891;28;20327;-73
2022/10/28 10:51:23;;;;;;;23.08;4.50;;;;;;;20.46;69.87;101620.22;5031848;28;20091;-73
2022/10/28 10:53:52;;;;;;;15.00;4.47;;;;;;;20.56;70.30;101613.44;5035356;28;20043;-73
2022/10/28 10:56:43;;;;;;;15.95;4.50;;;;;;;20.69;69.06;101624.44;5034882;28;20021;-73
2022/10/28 10:59:39;;;;;;;19.95;4.32;;;;;;;20.76;71.70;101617.81;5032649;28;20080;-73
2022/10/28 11:02:22;;;;;;;21.33;5.07;;;;;;;20.81;70.69;101629.19;5028689;28;20045;-73
2022/10/28 11:04:55;;;;;;;21.92;4.78;;;;;;;20.90;69.15;101622.47;5049836;28;20377;-73
2022/10/28 11:07:21;;;;;;;19.20;4.55;;;;;;;21.05;68.58;101629.72;5033511;28;20033;-73
2022/10/28 11:09:49;;;;;;;19.38;4.80;;;;;;;21.16;66.94;101625.59;5033921;28;20044;-73
2022/10/28 11:12:34;;;;;;;19.88;4.03;;;;;;;21.25;68.75;101617.88;5020371;28;20440;-73
2022/10/28 11:15:00;;;;;;;18.30;4.53;;;;;;;21.34;66.42;101611.13;5047973;28;20477;-73
2022/10/28 11:17:31;;;;;;;21.83;5.20;;;;;;;21.36;64.34;101617.28;5032178;28;20030;-73
2022/10/28 11:20:00;;;;;;;17.35;4.63;;;;;;;21.26;64.59;101616.94;5034347;28;20472;-73
2022/10/28 11:22:43;;;;;;;20.35;4.18;;;;;;;21.24;65.88;101610.75;5034286;28;20065;-73
2022/10/28 11:25:25;;;;;;;24.02;4.50;;;;;;;21.21;66.74;101607.34;5029786;28;20037;-73
2022/10/28 11:28:04;;;;;;;23.55;4.50;;;;;;;21.18;64.22;101603.00;5032836;28;20120;-73